sensor_id;sensor_type;location;lat;lon;timestamp;temperature;humidity
31263;DHT22;17892;52.080;9.006;2023-02-24T00:01:38;5.80;99.90
31263;DHT22;17892;52.080;9.006;2023-02-24T00:04:06;5.70;99.90
31263;DHT22;17892;52.080;9.006;2023-02-24T00:06:34;5.70;99.90
31263;DHT22;17892;52.080;9.006;2023-02-24T00:09:09;5.70;99.90
31263;DHT22;17892;52.080;9.006;2023-02-24T00:11:42;5.60;99.90
31263;DHT22;17892;52.080;9.006;2023-02-24T00:14:10;5.60;99.90
31263;DHT22;17892;52.080;9.006;2023-02-24T00:16:40;5.60;99.90
31263;DHT22;17892;52.080;9.006;2023-02-24T00:19:09;5.70;99.90
31263;DHT22;17892;52.080;9.006;2023-02-24T00:21:39;5.60;99.90
31263;DHT22;17892;52.080;9.006;2023-02-24T00:24:05;5.50;99.90
31263;DHT22;17892;52.080;9.006;2023-02-24T00:26:31;5.50;99.90
31263;DHT22;17892;52.080;9.006;2023-02-24T00:28:57;5.40;99.90
31263;DHT22;17892;52.080;9.006;2023-02-24T00:31:25;5.40;99.90
31263;DHT22;17892;52.080;9.006;2023-02-24T00:33:58;5.30;99.90
31263;DHT22;17892;52.080;9.006;2023-02-24T00:36:25;5.30;99.90
31263;DHT22;17892;52.080;9.006;2023-02-24T00:38:54;5.20;99.90
31263;DHT22;17892;52.080;9.006;2023-02-24T00:41:26;5.10;99.90
31263;DHT22;17892;52.080;9.006;2023-02-24T00:43:55;5.10;99.90
31263;DHT22;17892;52.080;9.006;2023-02-24T00:46:25;5.00;99.90
31263;DHT22;17892;52.080;9.006;2023-02-24T00:48:55;4.90;99.90
31263;DHT22;17892;52.080;9.006;2023-02-24T00:51:23;4.90;99.90
31263;DHT22;17892;52.080;9.006;2023-02-24T00:53:53;4.90;99.90
31263;DHT22;17892;52.080;9.006;2023-02-24T00:56:21;4.80;99.90
31263;DHT22;17892;52.080;9.006;2023-02-24T00:58:48;4.80;99.90
31263;DHT22;17892;52.080;9.006;2023-02-24T01:01:16;4.80;99.90
31263;DHT22;17892;52.080;9.006;2023-02-24T01:03:44;4.80;99.90
31263;DHT22;17892;52.080;9.006;2023-02-24T01:06:11;4.80;99.90
31263;DHT22;17892;52.080;9.006;2023-02-24T01:08:38;4.80;99.90
31263;DHT22;17892;52.080;9.006;2023-02-24T01:11:08;5.00;99.90
31263;DHT22;17892;52.080;9.006;2023-02-24T01:13:53;4.90;99.90
31263;DHT22;17892;52.080;9.006;2023-02-24T01:16:19;4.90;99.90
31263;DHT22;17892;52.080;9.006;2023-02-24T01:18:45;5.00;99.90
31263;DHT22;17892;52.080;9.006;2023-02-24T01:21:15;5.00;99.90
31263;DHT22;17892;52.080;9.006;2023-02-24T01:23:42;5.00;99.90
31263;DHT22;17892;52.080;9.006;2023-02-24T01:26:11;5.10;99.90
31263;DHT22;17892;52.080;9.006;2023-02-24T01:28:36;5.10;99.90
31263;DHT22;17892;52.080;9.006;2023-02-24T01:31:04;5.20;99.90
31263;DHT22;17892;52.080;9.006;2023-02-24T01:33:32;5.20;99.90
31263;DHT22;17892;52.080;9.006;2023-02-24T01:36:08;5.30;99.90
31263;DHT22;17892;52.080;9.006;2023-02-24T01:38:35;5.30;99.90
31263;DHT22;17892;52.080;9.006;2023-02-24T01:41:02;5.40;99.90
31263;DHT22;17892;52.080;9.006;2023-02-24T01:43:31;5.40;99.90
31263;DHT22;17892;52.080;9.006;2023-02-24T01:45:57;5.40;99.90
31263;DHT22;17892;52.080;9.006;2023-02-24T01:48:23;5.50;99.90
31263;DHT22;17892;52.080;9.006;2023-02-24T01:50:50;5.50;99.90
31263;DHT22;17892;52.080;9.006;2023-02-24T01:53:17;5.50;99.90
31263;DHT22;17892;52.080;9.006;2023-02-24T01:55:45;5.60;99.90
31263;DHT22;17892;52.080;9.006;2023-02-24T01:58:24;5.60;99.90
31263;DHT22;17892;52.080;9.006;2023-02-24T02:00:51;5.60;99.90
31263;DHT22;17892;52.080;9.006;2023-02-24T02:05:52;5.60;99.90
31263;DHT22;17892;52.080;9.006;2023-02-24T02:08:21;5.60;99.90
31263;DHT22;17892;52.080;9.006;2023-02-24T02:10:49;5.60;99.90
31263;DHT22;17892;52.080;9.006;2023-02-24T02:13:22;5.60;99.90
31263;DHT22;17892;52.080;9.006;2023-02-24T02:15:54;5.60;99.90
31263;DHT22;17892;52.080;9.006;2023-02-24T02:18:46;5.70;99.90
31263;DHT22;17892;52.080;9.006;2023-02-24T02:22:14;5.70;99.90
31263;DHT22;17892;52.080;9.006;2023-02-24T02:39:33;5.60;99.90
31263;DHT22;17892;52.080;9.006;2023-02-24T02:42:39;5.60;99.90
31263;DHT22;17892;52.080;9.006;2023-02-24T02:47:53;5.60;99.90
31263;DHT22;17892;52.080;9.006;2023-02-24T02:50:48;5.60;99.90
31263;DHT22;17892;52.080;9.006;2023-02-24T02:53:37;5.60;99.90
31263;DHT22;17892;52.080;9.006;2023-02-24T02:56:24;5.60;99.90
31263;DHT22;17892;52.080;9.006;2023-02-24T02:58:55;5.60;99.90
31263;DHT22;17892;52.080;9.006;2023-02-24T03:01:27;5.60;99.90
31263;DHT22;17892;52.080;9.006;2023-02-24T03:03:57;5.60;99.90
31263;DHT22;17892;52.080;9.006;2023-02-24T03:06:28;5.60;99.90
31263;DHT22;17892;52.080;9.006;2023-02-24T03:09:09;5.60;99.90
31263;DHT22;17892;52.080;9.006;2023-02-24T03:11:51;5.60;99.90
31263;DHT22;17892;52.080;9.006;2023-02-24T03:14:22;5.60;99.90
31263;DHT22;17892;52.080;9.006;2023-02-24T03:16:51;5.60;99.90
31263;DHT22;17892;52.080;9.006;2023-02-24T03:19:23;5.60;99.90
31263;DHT22;17892;52.080;9.006;2023-02-24T03:22:18;5.60;99.90
31263;DHT22;17892;52.080;9.006;2023-02-24T03:24:49;5.60;99.90
31263;DHT22;17892;52.080;9.006;2023-02-24T03:29:56;5.60;99.90
31263;DHT22;17892;52.080;9.006;2023-02-24T03:32:37;5.60;99.90
31263;DHT22;17892;52.080;9.006;2023-02-24T03:35:11;5.60;99.90
31263;DHT22;17892;52.080;9.006;2023-02-24T03:37:41;5.60;99.90
31263;DHT22;17892;52.080;9.006;2023-02-24T03:40:10;5.60;99.90
31263;DHT22;17892;52.080;9.006;2023-02-24T03:42:45;5.60;99.90
31263;DHT22;17892;52.080;9.006;2023-02-24T03:45:13;5.60;99.90
31263;DHT22;17892;52.080;9.006;2023-02-24T03:47:41;5.60;99.90
31263;DHT22;17892;52.080;9.006;2023-02-24T03:50:18;5.50;99.90
31263;DHT22;17892;52.080;9.006;2023-02-24T03:52:55;5.50;99.90
31263;DHT22;17892;52.080;9.006;2023-02-24T03:58:50;5.40;99.90
31263;DHT22;17892;52.080;9.006;2023-02-24T04:07:16;5.40;99.90
31263;DHT22;17892;52.080;9.006;2023-02-24T04:10:04;5.30;99.90
31263;DHT22;17892;52.080;9.006;2023-02-24T04:12:55;5.20;99.90
31263;DHT22;17892;52.080;9.006;2023-02-24T04:15:55;5.20;99.90
31263;DHT22;17892;52.080;9.006;2023-02-24T04:18:28;5.10;99.90
31263;DHT22;17892;52.080;9.006;2023-02-24T04:20:56;5.10;99.90
31263;DHT22;17892;52.080;9.006;2023-02-24T04:23:32;5.00;99.90
31263;DHT22;17892;52.080;9.006;2023-02-24T04:26:04;5.00;99.90
31263;DHT22;17892;52.080;9.006;2023-02-24T04:28:31;4.90;99.90
31263;DHT22;17892;52.080;9.006;2023-02-24T04:31:02;5.00;99.90
31263;DHT22;17892;52.080;9.006;2023-02-24T04:33:34;4.80;99.90
31263;DHT22;17892;52.080;9.006;2023-02-24T04:36:03;4.80;99.90
31263;DHT22;17892;52.080;9.006;2023-02-24T04:38:29;4.70;99.90
31263;DHT22;17892;52.080;9.006;2023-02-24T04:40:55;4.70;99.90
31263;DHT22;17892;52.080;9.006;2023-02-24T04:43:22;4.60;99.90
31263;DHT22;17892;52.080;9.006;2023-02-24T04:45:47;4.60;99.90
31263;DHT22;17892;52.080;9.006;2023-02-24T04:48:16;4.60;99.90
31263;DHT22;17892;52.080;9.006;2023-02-24T04:50:44;4.40;99.90
31263;DHT22;17892;52.080;9.006;2023-02-24T04:53:15;4.50;99.90
31263;DHT22;17892;52.080;9.006;2023-02-24T04:55:46;4.40;99.90
31263;DHT22;17892;52.080;9.006;2023-02-24T04:58:15;4.30;99.90
31263;DHT22;17892;52.080;9.006;2023-02-24T05:00:44;4.30;99.90
31263;DHT22;17892;52.080;9.006;2023-02-24T05:03:14;4.20;99.90
31263;DHT22;17892;52.080;9.006;2023-02-24T05:05:52;4.10;99.90
31263;DHT22;17892;52.080;9.006;2023-02-24T05:08:23;4.10;99.90
31263;DHT22;17892;52.080;9.006;2023-02-24T05:10:50;4.10;99.90
31263;DHT22;17892;52.080;9.006;2023-02-24T05:13:22;3.90;99.90
31263;DHT22;17892;52.080;9.006;2023-02-24T05:15:53;3.90;99.90
31263;DHT22;17892;52.080;9.006;2023-02-24T05:18:21;3.80;99.90
31263;DHT22;17892;52.080;9.006;2023-02-24T05:20:54;3.80;99.90
31263;DHT22;17892;52.080;9.006;2023-02-24T05:23:44;3.80;99.90
31263;DHT22;17892;52.080;9.006;2023-02-24T05:26:12;3.70;99.90
31263;DHT22;17892;52.080;9.006;2023-02-24T05:28:41;3.80;99.90
31263;DHT22;17892;52.080;9.006;2023-02-24T05:31:14;3.80;99.90
31263;DHT22;17892;52.080;9.006;2023-02-24T05:33:45;3.80;99.90
31263;DHT22;17892;52.080;9.006;2023-02-24T05:36:15;3.80;99.90
31263;DHT22;17892;52.080;9.006;2023-02-24T05:38:46;3.90;99.90
31263;DHT22;17892;52.080;9.006;2023-02-24T05:41:15;3.90;99.90
31263;DHT22;17892;52.080;9.006;2023-02-24T05:43:43;4.00;99.90
31263;DHT22;17892;52.080;9.006;2023-02-24T05:46:14;4.00;99.90
31263;DHT22;17892;52.080;9.006;2023-02-24T05:48:40;4.00;99.90
31263;DHT22;17892;52.080;9.006;2023-02-24T05:51:06;4.00;99.90
31263;DHT22;17892;52.080;9.006;2023-02-24T05:53:34;4.10;99.90
31263;DHT22;17892;52.080;9.006;2023-02-24T05:56:01;4.10;99.90
31263;DHT22;17892;52.080;9.006;2023-02-24T05:58:27;4.10;99.90
31263;DHT22;17892;52.080;9.006;2023-02-24T06:00:53;4.10;99.90
31263;DHT22;17892;52.080;9.006;2023-02-24T06:03:20;4.10;99.90
31263;DHT22;17892;52.080;9.006;2023-02-24T06:05:56;4.20;99.90
31263;DHT22;17892;52.080;9.006;2023-02-24T06:08:31;4.20;99.90
31263;DHT22;17892;52.080;9.006;2023-02-24T06:11:09;4.30;99.90
31263;DHT22;17892;52.080;9.006;2023-02-24T06:13:38;4.20;99.90
31263;DHT22;17892;52.080;9.006;2023-02-24T06:16:04;4.30;99.90
31263;DHT22;17892;52.080;9.006;2023-02-24T06:18:31;4.30;99.90
31263;DHT22;17892;52.080;9.006;2023-02-24T06:21:00;4.20;99.90
31263;DHT22;17892;52.080;9.006;2023-02-24T06:23:26;4.20;99.90
31263;DHT22;17892;52.080;9.006;2023-02-24T06:25:52;4.20;99.90
31263;DHT22;17892;52.080;9.006;2023-02-24T06:28:23;4.20;99.90
31263;DHT22;17892;52.080;9.006;2023-02-24T06:30:49;4.20;99.90
31263;DHT22;17892;52.080;9.006;2023-02-24T06:33:15;4.20;99.90
31263;DHT22;17892;52.080;9.006;2023-02-24T06:35:41;4.20;99.90
31263;DHT22;17892;52.080;9.006;2023-02-24T06:38:06;4.20;99.90
31263;DHT22;17892;52.080;9.006;2023-02-24T06:40:32;4.30;99.90
31263;DHT22;17892;52.080;9.006;2023-02-24T06:42:58;4.20;99.90
31263;DHT22;17892;52.080;9.006;2023-02-24T06:45:24;4.30;99.90
31263;DHT22;17892;52.080;9.006;2023-02-24T06:47:50;4.30;99.90
31263;DHT22;17892;52.080;9.006;2023-02-24T06:50:17;4.30;99.90
31263;DHT22;17892;52.080;9.006;2023-02-24T06:52:48;4.20;99.90
31263;DHT22;17892;52.080;9.006;2023-02-24T06:55:15;4.20;99.90
31263;DHT22;17892;52.080;9.006;2023-02-24T06:57:55;4.20;99.90
31263;DHT22;17892;52.080;9.006;2023-02-24T07:00:27;4.20;99.90
31263;DHT22;17892;52.080;9.006;2023-02-24T07:03:15;4.20;99.90
31263;DHT22;17892;52.080;9.006;2023-02-24T07:05:49;4.20;99.90
31263;DHT22;17892;52.080;9.006;2023-02-24T07:08:23;4.30;99.90
31263;DHT22;17892;52.080;9.006;2023-02-24T07:10:56;4.30;99.90
31263;DHT22;17892;52.080;9.006;2023-02-24T07:13:25;4.30;99.90
31263;DHT22;17892;52.080;9.006;2023-02-24T07:15:54;4.30;99.90
31263;DHT22;17892;52.080;9.006;2023-02-24T07:18:20;4.30;99.90
31263;DHT22;17892;52.080;9.006;2023-02-24T07:20:47;4.40;99.90
31263;DHT22;17892;52.080;9.006;2023-02-24T07:23:17;4.40;99.90
31263;DHT22;17892;52.080;9.006;2023-02-24T07:25:43;4.50;99.90
31263;DHT22;17892;52.080;9.006;2023-02-24T07:28:13;4.50;99.90
31263;DHT22;17892;52.080;9.006;2023-02-24T07:30:40;4.50;99.90
31263;DHT22;17892;52.080;9.006;2023-02-24T07:33:06;4.50;99.90
31263;DHT22;17892;52.080;9.006;2023-02-24T07:35:33;4.50;99.90
31263;DHT22;17892;52.080;9.006;2023-02-24T07:38:05;4.60;99.90
31263;DHT22;17892;52.080;9.006;2023-02-24T07:40:32;4.50;99.90
31263;DHT22;17892;52.080;9.006;2023-02-24T07:43:01;4.60;99.90
31263;DHT22;17892;52.080;9.006;2023-02-24T07:45:30;4.60;99.90
31263;DHT22;17892;52.080;9.006;2023-02-24T07:47:56;4.60;99.90
31263;DHT22;17892;52.080;9.006;2023-02-24T07:50:22;4.60;99.90
31263;DHT22;17892;52.080;9.006;2023-02-24T07:52:48;4.80;99.90
31263;DHT22;17892;52.080;9.006;2023-02-24T07:55:14;4.70;99.90
31263;DHT22;17892;52.080;9.006;2023-02-24T07:57:40;4.70;99.90
31263;DHT22;17892;52.080;9.006;2023-02-24T08:00:13;4.70;99.90
31263;DHT22;17892;52.080;9.006;2023-02-24T08:02:48;4.70;99.90
31263;DHT22;17892;52.080;9.006;2023-02-24T08:05:17;4.70;99.90
31263;DHT22;17892;52.080;9.006;2023-02-24T08:07:44;4.70;99.90
31263;DHT22;17892;52.080;9.006;2023-02-24T08:10:20;4.70;99.90
31263;DHT22;17892;52.080;9.006;2023-02-24T08:12:54;4.70;99.90
31263;DHT22;17892;52.080;9.006;2023-02-24T08:15:25;4.80;99.90
31263;DHT22;17892;52.080;9.006;2023-02-24T08:17:59;4.80;99.90
31263;DHT22;17892;52.080;9.006;2023-02-24T08:20:27;4.80;99.90
31263;DHT22;17892;52.080;9.006;2023-02-24T08:23:00;4.80;99.90
31263;DHT22;17892;52.080;9.006;2023-02-24T08:25:27;4.80;99.90
31263;DHT22;17892;52.080;9.006;2023-02-24T08:28:01;4.90;99.90
31263;DHT22;17892;52.080;9.006;2023-02-24T08:30:31;4.90;99.90
31263;DHT22;17892;52.080;9.006;2023-02-24T08:33:04;4.90;99.90
31263;DHT22;17892;52.080;9.006;2023-02-24T08:35:33;4.90;99.90
31263;DHT22;17892;52.080;9.006;2023-02-24T08:38:08;4.90;99.90
31263;DHT22;17892;52.080;9.006;2023-02-24T08:40:42;4.90;99.90
31263;DHT22;17892;52.080;9.006;2023-02-24T08:43:28;4.90;99.90
31263;DHT22;17892;52.080;9.006;2023-02-24T08:48:39;4.90;99.90
31263;DHT22;17892;52.080;9.006;2023-02-24T08:51:08;4.90;99.90
31263;DHT22;17892;52.080;9.006;2023-02-24T08:53:39;4.90;99.90
31263;DHT22;17892;52.080;9.006;2023-02-24T08:56:10;4.90;99.90
31263;DHT22;17892;52.080;9.006;2023-02-24T08:58:43;4.80;99.90
31263;DHT22;17892;52.080;9.006;2023-02-24T09:01:19;4.80;99.90
31263;DHT22;17892;52.080;9.006;2023-02-24T09:03:54;4.80;99.90
31263;DHT22;17892;52.080;9.006;2023-02-24T09:06:43;4.70;99.90
31263;DHT22;17892;52.080;9.006;2023-02-24T09:09:22;4.70;99.90
31263;DHT22;17892;52.080;9.006;2023-02-24T09:11:57;4.70;99.90
31263;DHT22;17892;52.080;9.006;2023-02-24T09:14:26;4.60;99.90
31263;DHT22;17892;52.080;9.006;2023-02-24T09:16:54;4.50;99.90
31263;DHT22;17892;52.080;9.006;2023-02-24T09:19:35;4.50;99.90
31263;DHT22;17892;52.080;9.006;2023-02-24T09:22:19;4.40;99.90
31263;DHT22;17892;52.080;9.006;2023-02-24T09:25:18;4.40;99.90
31263;DHT22;17892;52.080;9.006;2023-02-24T09:30:36;4.40;99.90
31263;DHT22;17892;52.080;9.006;2023-02-24T09:33:27;4.40;99.90
31263;DHT22;17892;52.080;9.006;2023-02-24T09:36:05;4.40;99.90
31263;DHT22;17892;52.080;9.006;2023-02-24T09:38:36;4.40;99.90
31263;DHT22;17892;52.080;9.006;2023-02-24T09:41:49;4.40;99.90
31263;DHT22;17892;52.080;9.006;2023-02-24T09:44:34;4.50;99.90
31263;DHT22;17892;52.080;9.006;2023-02-24T09:47:17;4.40;99.90
31263;DHT22;17892;52.080;9.006;2023-02-24T09:52:52;4.40;99.90
31263;DHT22;17892;52.080;9.006;2023-02-24T09:55:41;4.30;99.90
31263;DHT22;17892;52.080;9.006;2023-02-24T10:01:45;4.20;99.90
31263;DHT22;17892;52.080;9.006;2023-02-24T10:04:33;4.10;99.90
31263;DHT22;17892;52.080;9.006;2023-02-24T10:07:17;4.10;99.90
31263;DHT22;17892;52.080;9.006;2023-02-24T10:09:55;4.10;99.90
31263;DHT22;17892;52.080;9.006;2023-02-24T10:12:42;4.00;99.90
31263;DHT22;17892;52.080;9.006;2023-02-24T10:15:13;4.10;99.90
31263;DHT22;17892;52.080;9.006;2023-02-24T10:17:59;4.00;99.90
31263;DHT22;17892;52.080;9.006;2023-02-24T10:20:52;4.00;99.90
31263;DHT22;17892;52.080;9.006;2023-02-24T10:24:36;4.00;99.90
31263;DHT22;17892;52.080;9.006;2023-02-24T10:27:22;4.00;99.90
31263;DHT22;17892;52.080;9.006;2023-02-24T10:30:12;3.90;99.90
31263;DHT22;17892;52.080;9.006;2023-02-24T10:32:53;3.90;99.90
31263;DHT22;17892;52.080;9.006;2023-02-24T10:35:24;3.90;99.90
31263;DHT22;17892;52.080;9.006;2023-02-24T10:38:02;3.80;99.90
31263;DHT22;17892;52.080;9.006;2023-02-24T10:40:47;3.80;99.90
31263;DHT22;17892;52.080;9.006;2023-02-24T10:43:23;3.80;99.90
31263;DHT22;17892;52.080;9.006;2023-02-24T10:45:55;3.80;99.90
31263;DHT22;17892;52.080;9.006;2023-02-24T10:48:34;3.80;99.90
31263;DHT22;17892;52.080;9.006;2023-02-24T10:51:15;3.90;99.90
31263;DHT22;17892;52.080;9.006;2023-02-24T10:54:18;3.80;99.90
31263;DHT22;17892;52.080;9.006;2023-02-24T10:57:21;3.80;99.90
31263;DHT22;17892;52.080;9.006;2023-02-24T11:00:04;3.80;99.90
31263;DHT22;17892;52.080;9.006;2023-02-24T11:02:47;3.80;99.90
31263;DHT22;17892;52.080;9.006;2023-02-24T11:05:35;3.80;99.90
31263;DHT22;17892;52.080;9.006;2023-02-24T11:08:32;3.80;99.90
31263;DHT22;17892;52.080;9.006;2023-02-24T11:13:53;3.90;99.90
31263;DHT22;17892;52.080;9.006;2023-02-24T11:16:52;3.90;99.90
31263;DHT22;17892;52.080;9.006;2023-02-24T11:19:48;3.90;99.90
31263;DHT22;17892;52.080;9.006;2023-02-24T11:22:30;3.90;99.90
31263;DHT22;17892;52.080;9.006;2023-02-24T11:25:07;3.90;99.90
31263;DHT22;17892;52.080;9.006;2023-02-24T11:27:40;4.10;99.90
31263;DHT22;17892;52.080;9.006;2023-02-24T11:30:29;4.00;99.90
31263;DHT22;17892;52.080;9.006;2023-02-24T11:42:08;3.80;99.90
31263;DHT22;17892;52.080;9.006;2023-02-24T11:44:57;3.80;99.90
31263;DHT22;17892;52.080;9.006;2023-02-24T11:47:39;3.80;99.90
31263;DHT22;17892;52.080;9.006;2023-02-24T11:53:33;3.80;99.90
31263;DHT22;17892;52.080;9.006;2023-02-24T11:56:04;3.70;99.90
31263;DHT22;17892;52.080;9.006;2023-02-24T12:01:29;3.70;99.90
31263;DHT22;17892;52.080;9.006;2023-02-24T12:04:31;3.70;99.90
31263;DHT22;17892;52.080;9.006;2023-02-24T12:10:22;3.70;99.90
31263;DHT22;17892;52.080;9.006;2023-02-24T12:16:37;3.70;99.90
31263;DHT22;17892;52.080;9.006;2023-02-24T12:19:21;3.70;99.90
31263;DHT22;17892;52.080;9.006;2023-02-24T12:21:57;3.70;99.90
31263;DHT22;17892;52.080;9.006;2023-02-24T12:24:27;3.70;99.90
31263;DHT22;17892;52.080;9.006;2023-02-24T12:27:21;3.70;99.90
31263;DHT22;17892;52.080;9.006;2023-02-24T12:30:28;3.70;99.90
31263;DHT22;17892;52.080;9.006;2023-02-24T12:39:21;3.70;99.90
31263;DHT22;17892;52.080;9.006;2023-02-24T12:41:54;3.70;99.90
31263;DHT22;17892;52.080;9.006;2023-02-24T12:44:41;3.70;99.90
31263;DHT22;17892;52.080;9.006;2023-02-24T12:47:15;3.70;99.90
31263;DHT22;17892;52.080;9.006;2023-02-24T12:50:29;3.70;99.90
31263;DHT22;17892;52.080;9.006;2023-02-24T12:53:08;3.70;99.90
31263;DHT22;17892;52.080;9.006;2023-02-24T12:58:51;3.70;99.90
31263;DHT22;17892;52.080;9.006;2023-02-24T13:13:27;3.60;99.90
31263;DHT22;17892;52.080;9.006;2023-02-24T13:15:58;3.60;99.90
31263;DHT22;17892;52.080;9.006;2023-02-24T13:18:30;3.60;99.90
31263;DHT22;17892;52.080;9.006;2023-02-24T13:23:40;3.60;99.90
31263;DHT22;17892;52.080;9.006;2023-02-24T13:26:09;3.50;99.90
31263;DHT22;17892;52.080;9.006;2023-02-24T13:28:36;3.60;99.90
31263;DHT22;17892;52.080;9.006;2023-02-24T13:31:10;3.60;99.90
31263;DHT22;17892;52.080;9.006;2023-02-24T13:33:38;3.60;99.90
31263;DHT22;17892;52.080;9.006;2023-02-24T13:36:25;3.70;99.90
31263;DHT22;17892;52.080;9.006;2023-02-24T13:39:21;3.70;99.90
31263;DHT22;17892;52.080;9.006;2023-02-24T13:42:02;3.70;99.90
31263;DHT22;17892;52.080;9.006;2023-02-24T13:44:28;3.80;99.90
31263;DHT22;17892;52.080;9.006;2023-02-24T13:47:33;3.80;99.90
31263;DHT22;17892;52.080;9.006;2023-02-24T13:50:23;3.80;99.90
31263;DHT22;17892;52.080;9.006;2023-02-24T13:55:53;3.90;99.90
31263;DHT22;17892;52.080;9.006;2023-02-24T13:58:28;3.90;99.90
31263;DHT22;17892;52.080;9.006;2023-02-24T14:03:28;3.90;99.90
31263;DHT22;17892;52.080;9.006;2023-02-24T14:05:54;4.00;99.90
31263;DHT22;17892;52.080;9.006;2023-02-24T14:11:01;4.00;99.90
31263;DHT22;17892;52.080;9.006;2023-02-24T14:13:32;4.00;99.90
31263;DHT22;17892;52.080;9.006;2023-02-24T14:16:00;4.10;99.90
31263;DHT22;17892;52.080;9.006;2023-02-24T14:18:30;4.10;99.90
31263;DHT22;17892;52.080;9.006;2023-02-24T14:20:57;4.10;99.90
31263;DHT22;17892;52.080;9.006;2023-02-24T14:23:28;4.20;99.90
31263;DHT22;17892;52.080;9.006;2023-02-24T14:26:00;4.30;99.90
31263;DHT22;17892;52.080;9.006;2023-02-24T14:28:34;4.30;99.90
31263;DHT22;17892;52.080;9.006;2023-02-24T14:31:08;4.30;99.90
31263;DHT22;17892;52.080;9.006;2023-02-24T14:33:37;4.40;99.90
31263;DHT22;17892;52.080;9.006;2023-02-24T14:36:12;4.40;99.90
31263;DHT22;17892;52.080;9.006;2023-02-24T14:38:40;4.40;99.90
31263;DHT22;17892;52.080;9.006;2023-02-24T14:41:22;4.50;99.90
31263;DHT22;17892;52.080;9.006;2023-02-24T14:43:50;4.50;99.90
31263;DHT22;17892;52.080;9.006;2023-02-24T14:46:18;4.50;99.90
31263;DHT22;17892;52.080;9.006;2023-02-24T14:48:44;4.60;99.90
31263;DHT22;17892;52.080;9.006;2023-02-24T14:51:32;4.60;99.90
31263;DHT22;17892;52.080;9.006;2023-02-24T14:54:05;4.60;99.90
31263;DHT22;17892;52.080;9.006;2023-02-24T14:56:33;4.60;99.90
31263;DHT22;17892;52.080;9.006;2023-02-24T15:04:25;4.70;99.90
31263;DHT22;17892;52.080;9.006;2023-02-24T15:07:00;4.70;99.90
31263;DHT22;17892;52.080;9.006;2023-02-24T15:09:34;4.70;99.90
31263;DHT22;17892;52.080;9.006;2023-02-24T15:12:11;4.70;99.90
31263;DHT22;17892;52.080;9.006;2023-02-24T15:14:56;4.70;99.90
31263;DHT22;17892;52.080;9.006;2023-02-24T15:17:43;4.70;99.90
31263;DHT22;17892;52.080;9.006;2023-02-24T15:20:38;4.80;99.90
31263;DHT22;17892;52.080;9.006;2023-02-24T15:23:18;4.70;99.90
31263;DHT22;17892;52.080;9.006;2023-02-24T15:25:50;4.70;99.90
31263;DHT22;17892;52.080;9.006;2023-02-24T15:28:28;4.70;99.90
31263;DHT22;17892;52.080;9.006;2023-02-24T15:31:16;4.70;99.90
31263;DHT22;17892;52.080;9.006;2023-02-24T15:33:45;4.70;99.90
31263;DHT22;17892;52.080;9.006;2023-02-24T15:36:20;4.80;99.90
31263;DHT22;17892;52.080;9.006;2023-02-24T15:38:51;4.80;99.90
31263;DHT22;17892;52.080;9.006;2023-02-24T15:41:18;4.80;99.90
31263;DHT22;17892;52.080;9.006;2023-02-24T15:43:49;4.80;99.90
31263;DHT22;17892;52.080;9.006;2023-02-24T15:46:33;4.80;99.90
31263;DHT22;17892;52.080;9.006;2023-02-24T15:49:00;4.90;99.90
31263;DHT22;17892;52.080;9.006;2023-02-24T15:51:43;5.00;99.90
31263;DHT22;17892;52.080;9.006;2023-02-24T15:54:14;5.00;99.90
31263;DHT22;17892;52.080;9.006;2023-02-24T15:56:44;5.00;99.90
31263;DHT22;17892;52.080;9.006;2023-02-24T15:59:16;5.00;99.90
31263;DHT22;17892;52.080;9.006;2023-02-24T16:01:42;5.10;99.90
31263;DHT22;17892;52.080;9.006;2023-02-24T16:04:08;5.00;99.90
31263;DHT22;17892;52.080;9.006;2023-02-24T16:06:35;5.10;99.90
31263;DHT22;17892;52.080;9.006;2023-02-24T16:09:09;5.10;99.90
31263;DHT22;17892;52.080;9.006;2023-02-24T16:11:38;5.10;99.90
31263;DHT22;17892;52.080;9.006;2023-02-24T16:14:10;5.10;99.90
31263;DHT22;17892;52.080;9.006;2023-02-24T16:16:39;5.20;99.90
31263;DHT22;17892;52.080;9.006;2023-02-24T16:19:05;5.20;99.90
31263;DHT22;17892;52.080;9.006;2023-02-24T16:21:31;5.20;99.90
31263;DHT22;17892;52.080;9.006;2023-02-24T16:23:57;5.20;99.90
31263;DHT22;17892;52.080;9.006;2023-02-24T16:26:23;5.30;99.90
31263;DHT22;17892;52.080;9.006;2023-02-24T16:28:53;5.30;99.90
31263;DHT22;17892;52.080;9.006;2023-02-24T16:31:21;5.30;99.90
31263;DHT22;17892;52.080;9.006;2023-02-24T16:33:48;5.30;99.90
31263;DHT22;17892;52.080;9.006;2023-02-24T16:36:14;5.40;99.90
31263;DHT22;17892;52.080;9.006;2023-02-24T16:38:41;5.40;99.90
31263;DHT22;17892;52.080;9.006;2023-02-24T16:41:09;5.40;99.90
31263;DHT22;17892;52.080;9.006;2023-02-24T16:43:38;5.40;99.90
31263;DHT22;17892;52.080;9.006;2023-02-24T16:46:06;5.40;99.90
31263;DHT22;17892;52.080;9.006;2023-02-24T16:48:39;5.50;99.90
31263;DHT22;17892;52.080;9.006;2023-02-24T16:51:06;5.50;99.90
31263;DHT22;17892;52.080;9.006;2023-02-24T16:53:33;5.50;99.90
31263;DHT22;17892;52.080;9.006;2023-02-24T16:55:58;5.50;99.90
31263;DHT22;17892;52.080;9.006;2023-02-24T16:58:25;5.50;99.90
31263;DHT22;17892;52.080;9.006;2023-02-24T17:00:54;5.50;99.90
31263;DHT22;17892;52.080;9.006;2023-02-24T17:03:25;5.60;99.90
31263;DHT22;17892;52.080;9.006;2023-02-24T17:05:55;5.60;99.90
31263;DHT22;17892;52.080;9.006;2023-02-24T17:08:22;5.60;99.90
31263;DHT22;17892;52.080;9.006;2023-02-24T17:10:48;5.70;99.90
31263;DHT22;17892;52.080;9.006;2023-02-24T17:13:17;5.60;99.90
31263;DHT22;17892;52.080;9.006;2023-02-24T17:15:44;5.80;99.90
31263;DHT22;17892;52.080;9.006;2023-02-24T17:18:11;5.70;99.90
31263;DHT22;17892;52.080;9.006;2023-02-24T17:20:38;5.70;99.90
31263;DHT22;17892;52.080;9.006;2023-02-24T17:23:05;5.70;99.90
31263;DHT22;17892;52.080;9.006;2023-02-24T17:25:32;5.70;99.90
31263;DHT22;17892;52.080;9.006;2023-02-24T17:27:58;5.70;99.90
31263;DHT22;17892;52.080;9.006;2023-02-24T17:30:27;5.70;99.90
31263;DHT22;17892;52.080;9.006;2023-02-24T17:32:55;5.70;99.90
31263;DHT22;17892;52.080;9.006;2023-02-24T17:35:21;5.70;99.90
31263;DHT22;17892;52.080;9.006;2023-02-24T17:37:47;5.70;99.90
31263;DHT22;17892;52.080;9.006;2023-02-24T17:40:13;5.70;99.90
31263;DHT22;17892;52.080;9.006;2023-02-24T17:42:40;5.70;99.90
31263;DHT22;17892;52.080;9.006;2023-02-24T17:45:07;5.70;99.90
31263;DHT22;17892;52.080;9.006;2023-02-24T17:47:34;5.70;99.90
31263;DHT22;17892;52.080;9.006;2023-02-24T17:50:01;5.60;99.90
31263;DHT22;17892;52.080;9.006;2023-02-24T17:52:27;5.60;99.90
31263;DHT22;17892;52.080;9.006;2023-02-24T17:54:54;5.60;99.90
31263;DHT22;17892;52.080;9.006;2023-02-24T17:57:20;5.60;99.90
31263;DHT22;17892;52.080;9.006;2023-02-24T17:59:46;5.70;99.90
31263;DHT22;17892;52.080;9.006;2023-02-24T18:02:14;5.60;99.90
31263;DHT22;17892;52.080;9.006;2023-02-24T18:04:41;5.70;99.90
31263;DHT22;17892;52.080;9.006;2023-02-24T18:07:08;5.70;99.90
31263;DHT22;17892;52.080;9.006;2023-02-24T18:09:35;5.70;99.90
31263;DHT22;17892;52.080;9.006;2023-02-24T18:12:01;5.70;99.90